createdAt,value
2023-05-02T00:00:04.558Z,7.43
2023-05-02T00:00:17.559Z,7.22
2023-05-02T00:00:50.704Z,7.20
2023-05-02T00:01:05.346Z,7.28
2023-05-02T00:01:18.798Z,7.35
2023-05-02T00:01:31.584Z,7.30
2023-05-02T00:01:44.173Z,7.43
2023-05-02T00:01:56.814Z,7.40
2023-05-02T00:02:09.769Z,7.47
2023-05-02T00:02:23.584Z,7.30
2023-05-02T00:02:36.328Z,7.20
2023-05-02T00:02:49.117Z,7.35
2023-05-02T00:03:01.881Z,7.40
2023-05-02T00:03:14.782Z,7.25
2023-05-02T00:03:27.630Z,7.10
2023-05-02T00:03:42.096Z,7.43
2023-05-02T00:03:54.832Z,7.40
2023-05-02T00:04:08.188Z,7.38
2023-05-02T00:04:21.364Z,7.45
2023-05-02T00:04:34.099Z,7.32
2023-05-02T00:04:46.831Z,7.28
2023-05-02T00:04:59.552Z,7.45
2023-05-02T00:05:13.115Z,7.50
2023-05-02T00:05:25.783Z,7.40
2023-05-02T00:05:38.613Z,7.60
2023-05-02T00:05:51.429Z,7.35
2023-05-02T00:06:04.268Z,7.05
2023-05-02T00:06:17.151Z,7.20
2023-05-02T00:06:32.237Z,7.43
2023-05-02T00:06:46.666Z,7.47
2023-05-02T00:06:59.386Z,7.57
2023-05-02T00:07:12.122Z,7.28
2023-05-02T00:07:26.711Z,7.55
2023-05-02T00:07:39.256Z,7.72
2023-05-02T00:07:52.995Z,7.38
2023-05-02T00:08:05.866Z,7.13
2023-05-02T00:08:18.469Z,7.32
2023-05-02T00:08:31.064Z,7.40
2023-05-02T00:08:43.808Z,7.50
2023-05-02T00:08:56.362Z,7.53
2023-05-02T00:09:09.054Z,7.30
2023-05-02T00:09:22.841Z,7.03
2023-05-02T00:09:35.522Z,6.78
2023-05-02T00:09:48.119Z,7.03
2023-05-02T00:10:02.697Z,7.13
2023-05-02T00:10:15.594Z,7.20
2023-05-02T00:10:28.073Z,7.13
2023-05-02T00:10:40.691Z,7.32
2023-05-02T00:10:54.195Z,7.35
2023-05-02T00:11:06.737Z,7.20
2023-05-02T00:11:19.615Z,7.15
2023-05-02T00:11:32.099Z,7.85
2023-05-02T00:11:44.902Z,7.82
2023-05-02T00:11:57.414Z,7.55
2023-05-02T00:12:09.917Z,7.53
2023-05-02T00:12:23.496Z,7.50
2023-05-02T00:12:37.460Z,7.25
2023-05-02T00:12:50.033Z,7.35
2023-05-02T00:13:02.607Z,7.43
2023-05-02T00:13:15.263Z,7.30
2023-05-02T00:13:27.833Z,7.50
2023-05-02T00:13:40.377Z,7.50
2023-05-02T00:13:53.908Z,7.43
2023-05-02T00:14:06.572Z,7.32
2023-05-02T00:14:19.120Z,7.35
2023-05-02T00:14:31.681Z,7.32
2023-05-02T00:14:44.215Z,7.30
2023-05-02T00:14:56.713Z,7.07
2023-05-02T00:15:10.448Z,7.07
2023-05-02T00:15:24.079Z,7.07
2023-05-02T00:15:36.910Z,7.20
2023-05-02T00:15:49.461Z,7.47
2023-05-02T00:16:01.990Z,7.35
2023-05-02T00:16:14.551Z,7.20
2023-05-02T00:16:27.124Z,7.00
2023-05-02T00:16:39.714Z,7.22
2023-05-02T00:16:52.307Z,7.10
2023-05-02T00:17:05.962Z,6.90
2023-05-02T00:17:19.709Z,7.30
2023-05-02T00:17:32.551Z,7.20
2023-05-02T00:17:45.680Z,7.00
2023-05-02T00:17:58.352Z,7.00
2023-05-02T00:18:10.974Z,7.05
2023-05-02T00:18:24.355Z,7.05
2023-05-02T00:18:37.873Z,7.03
2023-05-02T00:18:50.423Z,7.20
2023-05-02T00:19:03.378Z,7.32
2023-05-02T00:19:16.228Z,7.28
2023-05-02T00:19:28.859Z,7.28
2023-05-02T00:19:41.372Z,7.18
2023-05-02T00:19:53.873Z,6.85
2023-05-02T00:20:09.396Z,7.18
2023-05-02T00:20:22.218Z,7.10
2023-05-02T00:20:34.745Z,6.75
2023-05-02T00:20:47.389Z,6.70
2023-05-02T00:21:00.063Z,7.00
2023-05-02T00:21:12.898Z,6.88
2023-05-02T00:21:29.175Z,6.90
2023-05-02T00:21:41.698Z,7.10
2023-05-02T00:21:54.322Z,7.10
2023-05-02T00:22:06.815Z,7.30
2023-05-02T00:22:19.816Z,7.18
2023-05-02T00:22:32.355Z,7.03
2023-05-02T00:22:45.840Z,7.13
2023-05-02T00:22:58.384Z,7.28
2023-05-02T00:23:13.185Z,7.35
2023-05-02T00:23:25.701Z,7.30
2023-05-02T00:23:38.307Z,7.00
2023-05-02T00:23:51.985Z,6.82
2023-05-02T00:24:05.164Z,6.70
2023-05-02T00:24:19.205Z,6.95
2023-05-02T00:24:31.704Z,7.43
2023-05-02T00:24:44.730Z,7.60
2023-05-02T00:24:57.721Z,7.28
2023-05-02T00:25:10.579Z,7.22
2023-05-02T00:25:23.712Z,7.10
2023-05-02T00:25:37.306Z,7.25
2023-05-02T00:25:50.265Z,7.38
2023-05-02T00:26:02.764Z,7.13
2023-05-02T00:26:15.545Z,7.03
2023-05-02T00:26:28.880Z,7.20
2023-05-02T00:26:41.372Z,7.47
2023-05-02T00:26:55.802Z,7.18
2023-05-02T00:27:08.367Z,7.10
2023-05-02T00:27:20.840Z,7.05
2023-05-02T00:27:33.745Z,7.15
2023-05-02T00:27:48.961Z,7.00
2023-05-02T00:28:01.479Z,6.80
2023-05-02T00:28:14.239Z,6.78
2023-05-02T00:28:27.797Z,7.03
2023-05-02T00:28:40.393Z,7.18
2023-05-02T00:28:52.951Z,7.38
2023-05-02T00:29:05.513Z,7.45
2023-05-02T00:29:18.206Z,7.30
2023-05-02T00:29:30.883Z,7.13
2023-05-02T00:29:44.396Z,7.13
2023-05-02T00:29:57.674Z,7.43
2023-05-02T00:30:10.980Z,7.20
2023-05-02T00:30:23.608Z,7.20
2023-05-02T00:30:36.820Z,7.20
2023-05-02T00:30:49.370Z,7.05
2023-05-02T00:31:03.244Z,7.10
2023-05-02T00:31:16.675Z,7.38
2023-05-02T00:31:29.295Z,7.28
2023-05-02T00:31:41.865Z,6.93
2023-05-02T00:31:54.468Z,7.05
2023-05-02T00:32:07.305Z,7.18
2023-05-02T00:32:19.913Z,7.13
2023-05-02T00:32:33.485Z,7.20
2023-05-02T00:32:46.077Z,6.90
2023-05-02T00:32:58.817Z,6.97
2023-05-02T00:33:12.668Z,7.00
2023-05-02T00:33:25.176Z,6.90
2023-05-02T00:33:37.715Z,7.03
2023-05-02T00:33:50.315Z,7.22
2023-05-02T00:34:03.875Z,7.38
2023-05-02T00:34:16.724Z,7.13
2023-05-02T00:34:30.539Z,7.15
2023-05-02T00:34:43.063Z,7.00
2023-05-02T00:34:56.100Z,6.85
2023-05-02T00:35:09.248Z,6.80
2023-05-02T00:35:22.825Z,6.78
2023-05-02T00:35:35.454Z,6.80
2023-05-02T00:35:47.955Z,6.80
2023-05-02T00:36:00.461Z,7.07
2023-05-02T00:36:16.698Z,7.20
2023-05-02T00:36:29.226Z,7.00
2023-05-02T00:36:41.922Z,6.43
2023-05-02T00:36:55.389Z,6.57
2023-05-02T00:37:08.316Z,7.13
2023-05-02T00:37:21.253Z,7.35
2023-05-02T00:37:33.909Z,7.40
2023-05-02T00:37:46.529Z,7.47
2023-05-02T00:37:59.799Z,7.20
2023-05-02T00:38:12.575Z,7.10
2023-05-02T00:38:26.185Z,6.95
2023-05-02T00:38:38.800Z,7.15
2023-05-02T00:38:51.318Z,7.35
2023-05-02T00:39:04.313Z,7.30
2023-05-02T00:39:17.084Z,7.20
2023-05-02T00:39:29.671Z,7.22
2023-05-02T00:39:42.267Z,7.20
2023-05-02T00:39:56.080Z,6.97
2023-05-02T00:40:09.362Z,6.80
2023-05-02T00:40:22.053Z,6.95
2023-05-02T00:40:44.188Z,7.07
2023-05-02T00:40:56.777Z,7.25
2023-05-02T00:41:10.816Z,7.38
2023-05-02T00:41:23.382Z,7.45
2023-05-02T00:41:35.937Z,7.20
2023-05-02T00:41:48.823Z,6.95
2023-05-02T00:42:02.251Z,7.03
2023-05-02T00:42:14.771Z,7.03
2023-05-02T00:42:31.419Z,6.90
2023-05-02T00:42:43.945Z,7.10
2023-05-02T00:42:58.381Z,7.30
2023-05-02T00:43:10.939Z,7.32
2023-05-02T00:43:23.633Z,7.38
2023-05-02T00:43:36.778Z,7.45
2023-05-02T00:43:50.286Z,7.50
2023-05-02T00:44:02.822Z,7.65
2023-05-02T00:44:15.394Z,7.50
2023-05-02T00:44:28.141Z,7.18
2023-05-02T00:44:40.779Z,7.00
2023-05-02T00:44:53.379Z,7.15
2023-05-02T00:45:06.884Z,7.25
2023-05-02T00:45:20.610Z,7.38
2023-05-02T00:45:33.181Z,7.40
2023-05-02T00:45:46.517Z,7.60
2023-05-02T00:45:59.280Z,7.38
2023-05-02T00:46:12.840Z,7.55
2023-05-02T00:46:26.070Z,7.35
2023-05-02T00:46:38.833Z,7.30
2023-05-02T00:46:52.759Z,7.40
2023-05-02T00:47:06.627Z,7.13
2023-05-02T00:47:19.130Z,7.03
2023-05-02T00:47:31.749Z,7.10
2023-05-02T00:47:44.348Z,7.03
2023-05-02T00:47:57.263Z,6.95
2023-05-02T00:48:10.905Z,6.90
2023-05-02T00:48:26.076Z,7.05
2023-05-02T00:48:39.075Z,6.82
2023-05-02T00:48:51.845Z,6.60
2023-05-02T00:49:04.430Z,6.88
2023-05-02T00:49:16.983Z,7.28
2023-05-02T00:49:30.362Z,7.18
2023-05-02T00:49:43.174Z,7.32
2023-05-02T00:49:56.662Z,7.20
2023-05-02T00:50:09.532Z,7.18
2023-05-02T00:50:22.278Z,7.38
2023-05-02T00:50:37.418Z,7.50
2023-05-02T00:50:49.932Z,7.40
2023-05-02T00:51:05.168Z,7.50
2023-05-02T00:51:18.858Z,7.57
2023-05-02T00:51:33.302Z,7.60
2023-05-02T00:51:46.260Z,7.65
2023-05-02T00:51:58.944Z,7.63
2023-05-02T00:52:11.693Z,7.60
2023-05-02T00:52:24.598Z,7.47
2023-05-02T00:52:38.752Z,6.93
2023-05-02T00:52:51.255Z,6.82
2023-05-02T00:53:04.535Z,7.10
2023-05-02T00:53:17.359Z,7.28
2023-05-02T00:53:30.227Z,7.22
2023-05-02T00:53:42.954Z,7.20
2023-05-02T00:53:57.810Z,7.20
2023-05-02T00:54:12.173Z,7.25
2023-05-02T00:54:24.742Z,7.30
2023-05-02T00:54:38.311Z,7.20
2023-05-02T00:54:51.488Z,7.30
2023-05-02T00:55:04.718Z,7.35
2023-05-02T00:55:17.571Z,7.35
2023-05-02T00:55:31.269Z,7.30
2023-05-02T00:55:45.240Z,7.40
2023-05-02T00:55:58.479Z,7.25
2023-05-02T00:56:11.193Z,6.80
2023-05-02T00:56:23.772Z,6.75
2023-05-02T00:56:36.989Z,7.00
2023-05-02T00:56:49.526Z,7.10
2023-05-02T00:57:03.045Z,7.00
2023-05-02T00:57:15.788Z,7.20
2023-05-02T00:57:28.801Z,7.22
2023-05-02T00:57:41.317Z,7.20
2023-05-02T00:57:54.356Z,7.38
2023-05-02T00:58:12.165Z,7.28
2023-05-02T00:58:26.717Z,7.13
2023-05-02T00:58:40.770Z,7.05
2023-05-02T00:58:54.205Z,6.90
2023-05-02T00:59:08.763Z,7.28
2023-05-02T00:59:21.406Z,7.30
2023-05-02T00:59:35.924Z,7.07
2023-05-02T00:59:49.450Z,7.00
2023-05-02T01:00:02.497Z,6.97
2023-05-02T01:00:15.102Z,7.05
2023-05-02T01:00:50.389Z,7.30
2023-05-02T01:01:21.300Z,6.82
2023-05-02T01:01:46.528Z,6.72
2023-05-02T01:02:10.922Z,6.97
2023-05-02T01:02:34.448Z,7.00
2023-05-02T01:02:53.681Z,7.00
2023-05-02T01:03:18.837Z,7.15
2023-05-02T01:03:42.196Z,6.95
2023-05-02T01:04:04.881Z,7.07
2023-05-02T01:04:32.141Z,6.88
2023-05-02T01:04:55.154Z,7.03
2023-05-02T01:05:14.923Z,7.13
2023-05-02T01:05:36.527Z,6.57
2023-05-02T01:05:59.443Z,6.78
2023-05-02T01:06:21.204Z,7.00
2023-05-02T01:06:48.056Z,6.80
2023-05-02T01:07:13.987Z,6.88
2023-05-02T01:07:44.296Z,6.95
2023-05-02T01:08:12.424Z,6.72
2023-05-02T01:08:33.597Z,6.93
2023-05-02T01:08:53.531Z,6.80
2023-05-02T01:09:22.310Z,6.90
2023-05-02T01:09:44.569Z,7.18
2023-05-02T01:10:05.660Z,6.90
2023-05-02T01:10:29.293Z,6.78
2023-05-02T01:10:50.186Z,6.88
2023-05-02T01:11:08.032Z,7.10
2023-05-02T01:11:36.303Z,7.00
2023-05-02T01:11:57.061Z,6.68
2023-05-02T01:12:19.041Z,6.65
2023-05-02T01:12:38.541Z,6.53
2023-05-02T01:13:01.385Z,6.68
2023-05-02T01:13:23.084Z,6.93
2023-05-02T01:13:37.897Z,7.13
2023-05-02T01:13:53.250Z,6.65
2023-05-02T01:14:09.012Z,6.53
2023-05-02T01:14:22.677Z,6.80
2023-05-02T01:14:42.276Z,6.95
2023-05-02T01:14:57.269Z,6.45
2023-05-02T01:15:16.497Z,6.82
2023-05-02T01:15:30.968Z,7.30
2023-05-02T01:15:45.381Z,7.45
2023-05-02T01:16:00.863Z,7.35
2023-05-02T01:16:16.262Z,7.45
2023-05-02T01:16:29.661Z,7.93
2023-05-02T01:16:45.767Z,7.90
2023-05-02T01:17:04.256Z,8.13
2023-05-02T01:17:19.165Z,8.05
2023-05-02T01:17:35.049Z,7.70
2023-05-02T01:17:51.776Z,7.63
2023-05-02T01:18:06.581Z,7.70
2023-05-02T01:18:23.167Z,8.00
2023-05-02T01:18:38.788Z,8.02
2023-05-02T01:18:52.801Z,8.02
2023-05-02T01:19:10.086Z,8.27
2023-05-02T01:19:29.537Z,8.60
2023-05-02T01:19:45.947Z,8.55
2023-05-02T01:20:02.493Z,8.35
2023-05-02T01:20:20.066Z,8.07
2023-05-02T01:20:41.775Z,7.72
2023-05-02T01:21:00.657Z,8.10
2023-05-02T01:21:13.419Z,8.15
2023-05-02T01:21:28.012Z,8.05
2023-05-02T01:21:41.699Z,8.13
2023-05-02T01:21:56.797Z,8.13
2023-05-02T01:22:12.734Z,8.02
2023-05-02T01:22:28.089Z,8.23
2023-05-02T01:22:41.567Z,8.27
2023-05-02T01:22:58.505Z,8.10
2023-05-02T01:23:17.541Z,7.97
2023-05-02T01:23:38.785Z,8.10
2023-05-02T01:24:02.553Z,7.50
2023-05-02T01:24:22.700Z,7.68
2023-05-02T01:24:43.048Z,8.15
2023-05-02T01:25:03.335Z,8.30
2023-05-02T01:25:26.582Z,8.18
2023-05-02T01:25:54.053Z,7.75
2023-05-02T01:26:17.548Z,7.85
2023-05-02T01:26:35.305Z,7.80
2023-05-02T01:27:02.667Z,8.02
2023-05-02T01:27:24.068Z,7.43
2023-05-02T01:27:43.611Z,7.55
2023-05-02T01:28:07.776Z,7.93
2023-05-02T01:28:29.366Z,7.70
2023-05-02T01:29:01.589Z,7.57
2023-05-02T01:29:17.194Z,7.43
2023-05-02T01:29:32.021Z,7.72
2023-05-02T01:29:46.253Z,8.10
2023-05-02T01:30:01.075Z,8.00
2023-05-02T01:30:16.454Z,7.63
2023-05-02T01:30:34.023Z,7.38
2023-05-02T01:30:47.859Z,7.20
2023-05-02T01:31:03.457Z,7.40
2023-05-02T01:31:16.402Z,7.45
2023-05-02T01:31:33.318Z,7.40
2023-05-02T01:31:49.525Z,7.50
2023-05-02T01:32:03.294Z,7.40
2023-05-02T01:32:18.354Z,7.20
2023-05-02T01:32:33.639Z,7.28
2023-05-02T01:32:48.729Z,7.43
2023-05-02T01:33:03.222Z,7.22
2023-05-02T01:33:17.550Z,7.38
2023-05-02T01:33:31.782Z,7.28
2023-05-02T01:33:47.178Z,7.20
2023-05-02T01:34:01.132Z,7.40
2023-05-02T01:34:13.948Z,7.28
2023-05-02T01:34:28.817Z,7.00
2023-05-02T01:34:43.809Z,6.70
2023-05-02T01:34:58.805Z,7.18
2023-05-02T01:35:14.751Z,7.32
2023-05-02T01:35:28.209Z,7.35
2023-05-02T01:35:43.944Z,7.55
2023-05-02T01:35:58.354Z,7.07
2023-05-02T01:36:13.267Z,7.00
2023-05-02T01:36:30.310Z,7.45
2023-05-02T01:36:45.069Z,7.50
2023-05-02T01:36:59.611Z,7.32
2023-05-02T01:37:13.488Z,7.40
2023-05-02T01:37:28.609Z,7.30
2023-05-02T01:37:43.100Z,7.10
2023-05-02T01:37:58.261Z,6.93
2023-05-02T01:38:15.446Z,6.80
2023-05-02T01:38:28.666Z,6.90
2023-05-02T01:38:43.769Z,7.15
2023-05-02T01:38:57.533Z,7.03
2023-05-02T01:39:12.626Z,6.80
2023-05-02T01:39:26.945Z,7.00
2023-05-02T01:39:41.384Z,6.97
2023-05-02T01:39:56.209Z,7.20
2023-05-02T01:40:10.855Z,7.35
2023-05-02T01:40:26.431Z,6.95
2023-05-02T01:40:41.443Z,6.75
2023-05-02T01:40:55.714Z,7.10
2023-05-02T01:41:09.496Z,7.20
2023-05-02T01:41:25.111Z,7.15
2023-05-02T01:41:38.715Z,7.10
2023-05-02T01:41:55.460Z,7.10
2023-05-02T01:42:08.053Z,7.07
2023-05-02T01:42:21.314Z,7.05
2023-05-02T01:42:36.668Z,7.13
2023-05-02T01:42:51.315Z,6.82
2023-05-02T01:43:07.564Z,6.70
2023-05-02T01:43:21.287Z,7.10
2023-05-02T01:43:36.225Z,7.10
2023-05-02T01:43:49.814Z,7.00
2023-05-02T01:44:06.201Z,6.93
2023-05-02T01:44:20.618Z,6.65
2023-05-02T01:44:36.580Z,6.80
2023-05-02T01:44:52.057Z,6.93
2023-05-02T01:45:08.205Z,6.78
2023-05-02T01:45:22.488Z,6.65
2023-05-02T01:45:38.080Z,6.68
2023-05-02T01:45:53.405Z,6.63
2023-05-02T01:46:09.325Z,6.90
2023-05-02T01:46:22.530Z,7.13
2023-05-02T01:46:38.541Z,6.97
2023-05-02T01:46:54.455Z,6.78
2023-05-02T01:47:09.850Z,6.50
2023-05-02T01:47:23.700Z,6.50
2023-05-02T01:47:37.903Z,6.40
2023-05-02T01:47:52.287Z,6.30
2023-05-02T01:48:08.332Z,6.50
2023-05-02T01:48:23.212Z,6.70
2023-05-02T01:48:36.747Z,6.55
2023-05-02T01:48:52.135Z,6.35
2023-05-02T01:49:07.318Z,6.53
2023-05-02T01:49:21.127Z,6.80
2023-05-02T01:49:35.470Z,6.47
2023-05-02T01:49:49.445Z,6.30
2023-05-02T01:50:04.013Z,6.53
2023-05-02T01:50:19.561Z,6.63
2023-05-02T01:50:32.122Z,6.50
2023-05-02T01:50:46.755Z,6.60
2023-05-02T01:51:01.213Z,6.70
2023-05-02T01:51:18.399Z,6.65
2023-05-02T01:51:34.763Z,6.18
2023-05-02T01:51:49.167Z,6.07
2023-05-02T01:52:05.038Z,6.15
2023-05-02T01:52:21.935Z,5.88
2023-05-02T01:52:36.044Z,6.10
2023-05-02T01:52:51.760Z,6.10
2023-05-02T01:53:06.894Z,6.18
2023-05-02T01:53:22.363Z,6.25
2023-05-02T01:53:36.911Z,6.32
2023-05-02T01:53:50.529Z,6.45
2023-05-02T01:54:06.818Z,6.35
2023-05-02T01:54:23.104Z,6.00
2023-05-02T01:54:36.892Z,6.15
2023-05-02T01:54:52.160Z,6.45
2023-05-02T01:55:08.861Z,6.35
2023-05-02T01:55:22.148Z,6.20
2023-05-02T01:55:36.759Z,6.50
2023-05-02T01:55:51.038Z,6.60
2023-05-02T01:56:04.194Z,6.57
2023-05-02T01:56:19.532Z,6.47
2023-05-02T01:56:35.710Z,6.25
2023-05-02T01:56:49.351Z,6.10
2023-05-02T01:57:05.100Z,6.28
2023-05-02T01:57:19.888Z,6.25
2023-05-02T01:57:32.844Z,6.28
2023-05-02T01:57:47.694Z,6.45
2023-05-02T01:58:00.611Z,6.35
2023-05-02T01:58:16.915Z,6.15
2023-05-02T01:58:32.479Z,6.03
2023-05-02T01:58:48.534Z,6.18
2023-05-02T01:59:02.773Z,6.28
2023-05-02T01:59:19.723Z,6.25
2023-05-02T01:59:34.264Z,6.13
2023-05-02T01:59:50.853Z,6.30
2023-05-02T02:00:04.936Z,6.55
2023-05-02T02:00:19.482Z,6.10
2023-05-02T02:00:34.053Z,6.22
2023-05-02T02:00:46.914Z,6.57
2023-05-02T02:01:02.260Z,6.28
2023-05-02T02:01:16.346Z,6.00
2023-05-02T02:01:31.324Z,6.05
2023-05-02T02:01:45.996Z,5.82
2023-05-02T02:02:01.847Z,5.97
2023-05-02T02:02:15.900Z,6.40
2023-05-02T02:02:31.381Z,6.25
2023-05-02T02:02:45.268Z,6.30
2023-05-02T02:02:59.098Z,6.50
2023-05-02T02:03:13.022Z,6.03
2023-05-02T02:03:27.030Z,5.97
2023-05-02T02:03:39.630Z,6.32
2023-05-02T02:03:54.494Z,6.20
2023-05-02T02:04:11.429Z,5.95
2023-05-02T02:04:25.660Z,6.20
2023-05-02T02:04:40.877Z,6.60
2023-05-02T02:04:55.456Z,6.53
2023-05-02T02:05:10.700Z,6.47
2023-05-02T02:05:26.547Z,6.25
2023-05-02T02:05:40.145Z,5.72
2023-05-02T02:05:55.384Z,5.85
2023-05-02T02:06:09.026Z,6.10
2023-05-02T02:06:22.501Z,6.10
2023-05-02T02:06:35.612Z,6.15
2023-05-02T02:06:54.596Z,6.18
2023-05-02T02:07:09.989Z,6.20
2023-05-02T02:07:22.731Z,6.10
2023-05-02T02:07:35.799Z,6.15
2023-05-02T02:07:48.491Z,6.35
2023-05-02T02:08:01.221Z,6.32
2023-05-02T02:08:13.922Z,6.50
2023-05-02T02:08:27.724Z,6.70
2023-05-02T02:08:40.403Z,6.70
2023-05-02T02:08:53.037Z,6.78
2023-05-02T02:09:06.103Z,6.63
2023-05-02T02:09:19.078Z,6.57
2023-05-02T02:09:31.873Z,6.38
2023-05-02T02:09:45.362Z,6.22
2023-05-02T02:09:58.337Z,6.15
2023-05-02T02:10:11.452Z,6.00
2023-05-02T02:10:27.287Z,5.85
2023-05-02T02:10:43.566Z,6.00
2023-05-02T02:11:01.680Z,6.15
2023-05-02T02:11:18.893Z,5.80
2023-05-02T02:11:37.617Z,5.65
2023-05-02T02:11:57.722Z,6.13
2023-05-02T02:12:15.325Z,6.32
2023-05-02T02:12:33.286Z,6.03
2023-05-02T02:12:52.364Z,6.18
2023-05-02T02:13:13.731Z,6.40
2023-05-02T02:13:30.436Z,6.40
2023-05-02T02:13:48.902Z,6.32
2023-05-02T02:14:06.638Z,5.75
2023-05-02T02:14:23.528Z,5.90
2023-05-02T02:14:38.585Z,6.03
2023-05-02T02:14:57.191Z,5.93
2023-05-02T02:15:18.283Z,5.85
2023-05-02T02:15:35.468Z,5.72
2023-05-02T02:15:51.958Z,5.90
2023-05-02T02:16:09.143Z,6.05
2023-05-02T02:16:26.304Z,5.93
2023-05-02T02:16:41.866Z,5.93
2023-05-02T02:17:01.630Z,6.13
2023-05-02T02:17:23.396Z,5.95
2023-05-02T02:17:39.609Z,6.05
2023-05-02T02:17:59.447Z,6.10
2023-05-02T02:18:18.626Z,6.55
2023-05-02T02:18:35.860Z,6.40
2023-05-02T02:18:49.415Z,5.90
2023-05-02T02:19:07.391Z,5.72
2023-05-02T02:19:21.440Z,5.90
2023-05-02T02:19:34.747Z,5.95
2023-05-02T02:19:47.373Z,6.18
2023-05-02T02:20:03.407Z,6.07
2023-05-02T02:20:17.484Z,5.90
2023-05-02T02:20:32.315Z,6.10
2023-05-02T02:20:47.227Z,6.00
2023-05-02T02:21:00.943Z,5.85
2023-05-02T02:21:18.914Z,6.18
2023-05-02T02:21:34.602Z,6.10
2023-05-02T02:21:48.449Z,6.18
2023-05-02T02:22:03.827Z,6.38
2023-05-02T02:22:21.174Z,6.10
2023-05-02T02:22:37.365Z,6.15
2023-05-02T02:22:52.372Z,6.38
2023-05-02T02:23:08.169Z,6.30
2023-05-02T02:23:23.406Z,6.07
2023-05-02T02:23:36.981Z,5.80
2023-05-02T02:23:55.007Z,6.22
2023-05-02T02:24:08.298Z,6.05
2023-05-02T02:24:22.913Z,5.85
2023-05-02T02:24:39.189Z,6.00
2023-05-02T02:24:54.501Z,6.18
2023-05-02T02:25:11.206Z,6.00
2023-05-02T02:25:26.955Z,5.95
2023-05-02T02:25:41.095Z,6.13
2023-05-02T02:25:55.763Z,5.95
2023-05-02T02:26:09.853Z,5.90
2023-05-02T02:26:23.601Z,5.95
2023-05-02T02:26:36.908Z,6.00
2023-05-02T02:26:50.382Z,5.75
2023-05-02T02:27:03.046Z,5.68
2023-05-02T02:27:16.017Z,5.57
2023-05-02T02:27:28.803Z,5.68
2023-05-02T02:27:41.897Z,5.82
2023-05-02T02:27:54.690Z,6.07
2023-05-02T02:28:07.509Z,6.32
2023-05-02T02:28:21.058Z,6.25
2023-05-02T02:28:34.698Z,6.30
2023-05-02T02:28:48.461Z,5.90
2023-05-02T02:29:01.482Z,5.75
2023-05-02T02:29:14.070Z,6.10
2023-05-02T02:29:28.379Z,6.15
2023-05-02T02:29:42.070Z,6.05
2023-05-02T02:29:54.893Z,6.10
2023-05-02T02:30:08.813Z,6.03
2023-05-02T02:30:21.408Z,6.22
2023-05-02T02:30:34.594Z,6.13
2023-05-02T02:30:47.239Z,5.80
2023-05-02T02:31:01.075Z,5.90
2023-05-02T02:31:13.649Z,5.90
2023-05-02T02:31:31.064Z,5.80
2023-05-02T02:31:43.704Z,5.82
2023-05-02T02:31:56.232Z,5.80
2023-05-02T02:32:08.722Z,5.80
2023-05-02T02:32:21.225Z,5.90
2023-05-02T02:32:35.155Z,5.72
2023-05-02T02:32:47.802Z,5.60
2023-05-02T02:33:00.430Z,5.50
2023-05-02T02:33:13.005Z,5.78
2023-05-02T02:33:30.074Z,6.13
2023-05-02T02:33:43.315Z,6.00
2023-05-02T02:33:55.915Z,5.82
2023-05-02T02:34:09.583Z,5.88
2023-05-02T02:34:22.370Z,5.90
2023-05-02T02:34:34.917Z,5.85
2023-05-02T02:34:47.441Z,5.88
2023-05-02T02:35:00.564Z,6.07
2023-05-02T02:35:13.220Z,6.10
2023-05-02T02:35:29.974Z,6.22
2023-05-02T02:35:44.712Z,6.05
2023-05-02T02:36:04.472Z,6.20
2023-05-02T02:36:25.276Z,6.47
2023-05-02T02:36:46.141Z,6.18
2023-05-02T02:37:08.268Z,6.15
2023-05-02T02:37:27.558Z,6.22
2023-05-02T02:37:47.039Z,5.80
2023-05-02T02:38:04.971Z,5.95
2023-05-02T02:38:27.797Z,6.35
2023-05-02T02:38:48.354Z,5.72
2023-05-02T02:39:13.826Z,5.97
2023-05-02T02:39:39.838Z,6.25
2023-05-02T02:40:00.821Z,5.93
2023-05-02T02:40:21.872Z,5.53
2023-05-02T02:40:42.260Z,5.68
2023-05-02T02:41:01.227Z,5.57
2023-05-02T02:41:18.467Z,6.00
2023-05-02T02:41:36.834Z,5.95
2023-05-02T02:42:01.747Z,6.00
2023-05-02T02:42:19.036Z,5.32
2023-05-02T02:42:40.060Z,5.68
2023-05-02T02:43:12.834Z,5.90
2023-05-02T02:43:33.385Z,5.80
2023-05-02T02:43:53.912Z,5.90
2023-05-02T02:44:18.873Z,5.80
2023-05-02T02:44:45.033Z,6.00
2023-05-02T02:45:05.913Z,6.15
2023-05-02T02:45:30.154Z,5.90
2023-05-02T02:45:51.123Z,5.60
2023-05-02T02:46:15.595Z,5.82
2023-05-02T02:46:41.196Z,6.03
2023-05-02T02:47:06.028Z,5.80
2023-05-02T02:47:26.336Z,5.90
2023-05-02T02:47:44.189Z,5.80
2023-05-02T02:48:08.343Z,5.85
2023-05-02T02:48:36.005Z,5.60
2023-05-02T02:48:58.526Z,5.80
2023-05-02T02:49:27.096Z,5.43
2023-05-02T02:49:49.585Z,5.80
2023-05-02T02:50:14.030Z,5.88
2023-05-02T02:50:32.590Z,5.65
2023-05-02T02:50:54.876Z,5.45
2023-05-02T02:51:12.846Z,5.70
2023-05-02T02:51:32.050Z,5.50
2023-05-02T02:51:50.447Z,5.55
2023-05-02T02:52:11.636Z,5.70
2023-05-02T02:52:33.156Z,5.93
2023-05-02T02:52:53.715Z,5.88
2023-05-02T02:53:09.923Z,5.80
2023-05-02T02:53:32.695Z,5.82
2023-05-02T02:53:59.550Z,5.78
2023-05-02T02:54:26.557Z,5.80
2023-05-02T02:54:45.537Z,5.50
2023-05-02T02:55:00.764Z,5.50
2023-05-02T02:55:17.513Z,5.60
2023-05-02T02:55:39.405Z,5.70
2023-05-02T02:55:57.966Z,5.70
2023-05-02T02:56:15.961Z,5.63
2023-05-02T02:56:36.543Z,5.50
2023-05-02T02:56:56.931Z,5.10
2023-05-02T02:57:19.132Z,5.53
2023-05-02T02:57:39.680Z,5.70
2023-05-02T02:57:58.302Z,5.60
2023-05-02T02:58:21.874Z,5.80
2023-05-02T02:58:47.399Z,5.53
2023-05-02T02:59:05.493Z,5.60
2023-05-02T02:59:26.519Z,5.97
2023-05-02T02:59:47.213Z,5.70
2023-05-02T03:00:08.237Z,5.70
2023-05-02T03:00:22.910Z,5.53
2023-05-02T03:00:36.648Z,5.80
2023-05-02T03:00:50.162Z,5.88
2023-05-02T03:01:07.964Z,5.80
2023-05-02T03:01:22.296Z,5.93
2023-05-02T03:01:40.686Z,5.90
2023-05-02T03:02:04.066Z,5.80
2023-05-02T03:02:19.619Z,5.88
2023-05-02T03:02:33.748Z,5.80
2023-05-02T03:02:49.235Z,5.78
2023-05-02T03:03:01.913Z,5.88
2023-05-02T03:03:15.942Z,6.00
2023-05-02T03:03:31.417Z,6.20
2023-05-02T03:03:45.626Z,5.63
2023-05-02T03:03:58.989Z,5.65
2023-05-02T03:04:13.709Z,5.68
2023-05-02T03:04:29.786Z,5.70
2023-05-02T03:04:44.561Z,5.85
2023-05-02T03:04:58.438Z,6.00
2023-05-02T03:05:11.860Z,5.95
2023-05-02T03:05:24.652Z,5.93
2023-05-02T03:05:38.952Z,5.85
2023-05-02T03:05:51.837Z,5.53
2023-05-02T03:06:04.911Z,5.43
2023-05-02T03:06:18.461Z,5.68
2023-05-02T03:06:31.824Z,6.13
2023-05-02T03:06:44.679Z,6.13
2023-05-02T03:06:57.265Z,5.97
2023-05-02T03:07:10.632Z,5.88
2023-05-02T03:07:23.414Z,5.97
2023-05-02T03:07:36.994Z,5.85
2023-05-02T03:07:49.679Z,5.75
2023-05-02T03:08:02.308Z,5.82
2023-05-02T03:08:15.251Z,5.90
2023-05-02T03:08:27.925Z,5.72
2023-05-02T03:08:40.736Z,5.70
2023-05-02T03:08:54.500Z,5.78
2023-05-02T03:09:07.311Z,5.93
2023-05-02T03:09:20.137Z,5.90
2023-05-02T03:09:41.281Z,6.03
2023-05-02T03:09:53.975Z,6.00
2023-05-02T03:10:07.793Z,5.85
2023-05-02T03:10:23.272Z,6.05
2023-05-02T03:10:35.905Z,6.05
2023-05-02T03:10:48.474Z,5.65
2023-05-02T03:11:01.188Z,5.57
2023-05-02T03:11:13.754Z,5.57
2023-05-02T03:11:27.657Z,5.57
2023-05-02T03:11:40.981Z,5.97
2023-05-02T03:11:53.448Z,6.00
2023-05-02T03:12:06.910Z,5.63
2023-05-02T03:12:19.455Z,5.55
2023-05-02T03:12:32.418Z,5.53
2023-05-02T03:12:44.913Z,5.82
2023-05-02T03:12:58.415Z,6.00
2023-05-02T03:13:11.125Z,5.85
2023-05-02T03:13:23.696Z,5.88
2023-05-02T03:13:36.534Z,5.90
2023-05-02T03:13:49.532Z,5.68
2023-05-02T03:14:02.019Z,5.60
2023-05-02T03:14:14.573Z,5.68
2023-05-02T03:14:27.166Z,5.60
2023-05-02T03:14:42.624Z,5.72
2023-05-02T03:15:08.203Z,5.80
2023-05-02T03:15:43.136Z,5.55
2023-05-02T03:16:32.514Z,5.53
2023-05-02T03:16:46.020Z,6.00
2023-05-02T03:16:58.648Z,5.80
2023-05-02T03:17:11.187Z,5.55
2023-05-02T03:17:26.327Z,5.38
2023-05-02T03:17:38.931Z,5.57
2023-05-02T03:17:51.535Z,5.90
2023-05-02T03:18:04.217Z,6.00
2023-05-02T03:18:16.803Z,6.00
2023-05-02T03:18:29.310Z,5.63
2023-05-02T03:18:42.161Z,5.50
2023-05-02T03:18:54.630Z,5.30
2023-05-02T03:19:09.204Z,5.38
2023-05-02T03:19:21.687Z,5.50
2023-05-02T03:19:34.240Z,5.50
2023-05-02T03:19:47.367Z,5.50
2023-05-02T03:20:00.041Z,5.70
2023-05-02T03:20:12.749Z,5.70
2023-05-02T03:20:26.288Z,5.63
2023-05-02T03:20:39.132Z,5.60
2023-05-02T03:20:51.577Z,5.60
2023-05-02T03:21:04.253Z,5.57
2023-05-02T03:21:16.962Z,5.40
2023-05-02T03:21:31.597Z,5.28
2023-05-02T03:21:45.493Z,5.60
2023-05-02T03:21:57.983Z,5.68
2023-05-02T03:22:10.516Z,5.68
2023-05-02T03:22:23.115Z,5.70
2023-05-02T03:22:35.600Z,5.70
2023-05-02T03:22:48.053Z,5.70
2023-05-02T03:23:00.549Z,5.68
2023-05-02T03:23:14.051Z,5.63
2023-05-02T03:23:26.876Z,5.65
2023-05-02T03:23:39.371Z,5.65
2023-05-02T03:23:51.944Z,5.90
2023-05-02T03:24:05.121Z,6.03
2023-05-02T03:24:19.276Z,6.03
2023-05-02T03:24:33.072Z,5.60